Time;durP1;ratioP1;P1;durP2;ratioP2;P2;SDS_P1;SDS_P2;PMS_P1;PMS_P2;Temp;Humidity;BMP_temperature;BMP_pressure;BME280_temperature;BME280_humidity;BME280_pressure;Samples;Min_cycle;Max_cycle;Signal;HPM_P1;HPM_P2
2022/12/20 00:00:07;;;;;;;10.13;6.07;;;5.30;99.90;;;4.07;100.00;97877.50;5030331;28;20483;-75
2022/12/20 00:02:33;;;;;;;8.57;5.80;;;5.30;99.90;;;4.11;100.00;97873.50;5029608;28;20407;-75
2022/12/20 00:04:59;;;;;;;8.67;5.50;;;5.30;99.90;;;4.06;100.00;97870.63;5029730;28;20852;-75
2022/12/20 00:07:25;;;;;;;10.25;5.35;;;5.20;99.90;;;4.02;100.00;97869.44;5030187;28;20403;-74
2022/12/20 00:09:51;;;;;;;7.75;5.15;;;5.20;99.90;;;3.89;100.00;97870.22;5030136;28;20399;-75
2022/12/20 00:12:17;;;;;;;9.57;5.40;;;5.10;99.90;;;3.76;100.00;97858.88;5029274;28;20497;-75
2022/12/20 00:14:44;;;;;;;7.70;5.35;;;4.90;99.90;;;3.66;100.00;97866.28;5029659;28;20406;-74
2022/12/20 00:17:10;;;;;;;7.67;5.47;;;4.80;99.90;;;3.57;100.00;97863.03;5030064;28;20486;-75
2022/12/20 00:19:36;;;;;;;8.30;5.90;;;4.80;99.90;;;3.49;100.00;97853.53;5029936;28;20859;-74
2022/12/20 00:22:02;;;;;;;8.43;5.75;;;4.70;99.90;;;3.40;100.00;97848.66;5029255;28;20400;-74
2022/12/20 00:24:28;;;;;;;11.00;5.93;;;4.60;99.90;;;3.31;100.00;97845.38;5029709;28;20435;-74
2022/12/20 00:26:54;;;;;;;11.07;6.35;;;4.50;99.90;;;3.24;100.00;97836.69;5012175;28;20430;-74
2022/12/20 00:29:20;;;;;;;11.73;6.03;;;4.50;99.90;;;3.15;100.00;97839.69;5029731;28;20413;-74
2022/12/20 00:31:47;;;;;;;9.00;5.80;;;4.30;99.90;;;3.11;100.00;97852.31;5029173;28;20853;-74
2022/12/20 00:34:13;;;;;;;8.50;5.70;;;4.30;99.90;;;2.97;100.00;97846.19;5029546;28;20411;-73
2022/12/20 00:36:39;;;;;;;8.63;5.80;;;4.20;99.90;;;2.93;100.00;97846.78;5029456;28;20461;-74
2022/12/20 00:39:05;;;;;;;10.13;5.73;;;4.10;99.90;;;2.87;100.00;97839.69;5029715;28;20494;-75
2022/12/20 00:41:33;;;;;;;10.40;5.30;;;4.10;99.90;;;2.81;100.00;97835.22;5029532;28;20487;-74
2022/12/20 00:43:59;;;;;;;11.57;6.22;;;4.00;99.90;;;2.75;100.00;97836.78;5029346;28;20422;-75
2022/12/20 00:46:25;;;;;;;11.73;6.30;;;4.00;99.90;;;2.71;100.00;97841.59;5011866;28;20411;-75
2022/12/20 00:48:53;;;;;;;10.75;5.88;;;4.00;99.90;;;2.66;100.00;97833.50;5030010;28;20406;-75
2022/12/20 00:51:22;;;;;;;7.90;5.50;;;3.90;99.90;;;2.67;100.00;97847.38;5028782;28;20430;-74
2022/12/20 00:53:48;;;;;;;10.87;6.30;;;3.90;99.90;;;2.65;100.00;97844.16;5029196;28;20412;-74
2022/12/20 00:56:14;;;;;;;10.82;6.00;;;3.90;99.90;;;2.61;100.00;97822.81;5029577;28;20403;-75
2022/12/20 00:58:42;;;;;;;12.77;6.70;;;3.90;99.90;;;2.64;100.00;97837.31;5029610;28;20403;-74
2022/12/20 01:01:18;;;;;;;12.50;6.57;;;3.90;99.90;;;2.58;100.00;97841.50;5029482;28;20406;-74
2022/12/20 01:03:44;;;;;;;11.15;6.47;;;3.80;99.90;;;2.54;100.00;97848.09;5029370;28;20773;-74
2022/12/20 01:06:11;;;;;;;11.93;6.50;;;3.80;99.90;;;2.54;100.00;97837.66;5032502;28;20410;-75
2022/12/20 01:08:38;;;;;;;9.45;6.15;;;3.80;99.90;;;2.56;100.00;97846.09;5033467;28;20411;-75
2022/12/20 01:11:07;;;;;;;11.67;6.70;;;3.80;99.90;;;2.55;100.00;97852.34;5033192;28;20441;-74
2022/12/20 01:13:36;;;;;;;12.98;7.10;;;3.80;99.90;;;2.53;100.00;97854.31;5032468;28;20452;-74
2022/12/20 01:16:04;;;;;;;11.45;7.25;;;3.80;99.90;;;2.53;100.00;97862.16;5033158;28;20432;-74
2022/12/20 01:18:30;;;;;;;11.40;6.53;;;3.80;99.90;;;2.50;100.00;97872.97;5033411;28;20935;-74
2022/12/20 01:21:01;;;;;;;12.52;6.22;;;3.70;99.90;;;2.48;100.00;97868.94;5033115;28;20490;-74
2022/12/20 01:23:29;;;;;;;10.88;6.38;;;3.70;99.90;;;2.51;100.00;97858.91;5032204;28;20808;-73
2022/12/20 01:25:58;;;;;;;8.93;5.90;;;3.70;99.90;;;2.54;100.00;97857.75;5033047;28;20395;-73
2022/12/20 01:28:24;;;;;;;9.63;5.50;;;3.80;99.90;;;2.51;100.00;97848.47;5032991;28;20526;-73
2022/12/20 01:30:50;;;;;;;8.30;5.50;;;3.80;99.90;;;2.50;100.00;97846.03;5032847;28;20403;-73
2022/12/20 01:33:15;;;;;;;12.13;6.53;;;3.70;99.90;;;2.45;100.00;97857.06;5032155;28;20407;-73
2022/12/20 01:35:41;;;;;;;10.50;6.70;;;3.70;99.90;;;2.42;100.00;97844.38;5032751;28;20490;-73
2022/12/20 01:38:07;;;;;;;9.73;6.23;;;3.70;99.90;;;2.42;100.00;97857.44;5032845;28;20877;-73
2022/12/20 01:40:38;;;;;;;8.68;5.78;;;3.70;99.90;;;2.38;100.00;97845.75;5032738;28;20508;-73
2022/12/20 01:43:04;;;;;;;11.38;6.93;;;3.60;99.90;;;2.37;100.00;97857.19;5031834;28;20447;-73
2022/12/20 01:45:30;;;;;;;14.60;7.38;;;3.60;99.90;;;2.34;100.00;97840.06;5032507;28;20399;-73
2022/12/20 01:47:57;;;;;;;13.48;7.47;;;3.60;99.90;;;2.33;100.00;97841.06;5032892;28;20396;-73
2022/12/20 01:50:24;;;;;;;10.82;7.13;;;3.60;99.90;;;2.36;100.00;97846.91;5014830;28;20422;-72
2022/12/20 01:52:51;;;;;;;14.43;7.72;;;3.60;99.90;;;2.31;100.00;97843.09;5013872;28;20419;-72
2022/12/20 01:55:22;;;;;;;10.55;6.85;;;3.50;99.90;;;2.33;100.00;97848.13;5032527;28;20907;-74
2022/12/20 01:57:55;;;;;;;11.00;6.63;;;3.60;99.90;;;2.32;100.00;97851.72;5032544;28;20440;-73
2022/12/20 02:00:22;;;;;;;12.98;6.75;;;3.60;99.90;;;2.36;100.00;97815.56;5032369;28;20464;-73
2022/12/20 02:02:49;;;;;;;10.25;6.30;;;3.60;99.90;;;2.37;100.00;97820.63;5031710;28;20403;-75
2022/12/20 02:05:18;;;;;;;10.80;6.57;;;3.60;99.90;;;2.33;100.00;97830.63;5032236;28;20902;-74
2022/12/20 02:07:47;;;;;;;10.00;6.10;;;3.60;99.90;;;2.31;100.00;97810.94;5032276;28;20838;-74
2022/12/20 02:10:14;;;;;;;10.27;6.10;;;3.50;99.90;;;2.32;100.00;97821.19;5032245;28;20530;-74
2022/12/20 02:12:43;;;;;;;10.75;6.40;;;3.60;99.90;;;2.35;100.00;97817.38;5031253;28;20435;-73
2022/12/20 02:15:44;;;;;;;12.10;6.53;;;3.60;99.90;;;2.34;100.00;97813.94;5032184;28;20440;-73
2022/12/20 02:18:21;;;;;;;16.30;8.38;;;3.60;99.90;;;2.36;100.00;97805.94;5017730;28;20932;-75
2022/12/20 02:21:14;;;;;;;16.23;8.52;;;3.60;99.90;;;2.39;100.00;97802.16;5031872;28;20415;-75
2022/12/20 02:24:30;;;;;;;11.77;7.03;;;3.60;99.90;;;2.38;100.00;97816.19;5031605;28;20438;-74
2022/12/20 02:27:29;;;;;;;11.38;7.45;;;3.60;99.90;;;2.36;100.00;97807.75;5031869;28;20448;-74
2022/12/20 02:30:12;;;;;;;13.30;8.30;;;3.60;99.90;;;2.36;100.00;97792.88;5031884;28;20946;-75
2022/12/20 02:32:46;;;;;;;17.25;9.77;;;3.60;99.90;;;2.37;100.00;97797.09;5031157;28;20452;-74
2022/12/20 02:35:20;;;;;;;17.88;10.27;;;3.60;99.90;;;2.34;100.00;97794.84;5031694;28;20417;-74
2022/12/20 02:37:52;;;;;;;26.20;12.07;;;3.60;99.90;;;2.30;100.00;97802.28;5031858;28;20444;-74
2022/12/20 02:40:23;;;;;;;22.67;11.63;;;3.60;99.90;;;2.28;100.00;97806.88;5031755;28;20407;-74
2022/12/20 02:42:54;;;;;;;25.10;13.57;;;3.50;99.90;;;2.27;100.00;97791.38;5030887;28;20838;-74
2022/12/20 02:45:26;;;;;;;25.33;13.35;;;3.50;99.90;;;2.29;100.00;97794.63;5031587;28;20414;-74
2022/12/20 02:47:58;;;;;;;24.00;13.55;;;3.50;99.90;;;2.36;100.00;97795.50;5031607;28;20406;-75
2022/12/20 02:50:30;;;;;;;22.52;13.05;;;3.60;99.90;;;2.35;100.00;97796.47;5031517;28;20427;-74
2022/12/20 02:52:57;;;;;;;26.98;13.65;;;3.60;99.90;;;2.41;100.00;97790.50;5030633;28;20423;-74
2022/12/20 02:55:37;;;;;;;24.50;13.02;;;3.60;99.90;;;2.41;100.00;97779.22;5031322;28;20402;-74
2022/12/20 02:58:09;;;;;;;24.30;12.80;;;3.60;99.90;;;2.45;100.00;97780.47;5031418;28;20768;-74
2022/12/20 03:00:41;;;;;;;26.08;13.50;;;3.70;99.90;;;2.45;100.00;97783.91;5031366;28;20407;-74
2022/12/20 03:03:23;;;;;;;30.65;16.63;;;3.70;99.90;;;2.43;100.00;97774.63;5030397;28;20874;-74
2022/12/20 03:05:52;;;;;;;34.45;17.67;;;3.70;99.90;;;2.56;100.00;97767.69;5049458;22;20918;-81
2022/12/20 03:08:19;;;;;;;30.52;18.00;;;3.90;99.90;;;2.76;100.00;97756.56;5050982;28;20434;-81
2022/12/20 03:10:46;;;;;;;29.27;17.50;;;4.10;99.90;;;2.92;100.00;97764.91;5050726;28;20781;-81
2022/12/20 03:13:12;;;;;;;29.23;16.05;;;4.20;99.90;;;2.97;100.00;97759.91;5050006;28;20891;-81
2022/12/20 03:15:39;;;;;;;26.75;14.70;;;4.30;99.90;;;3.06;100.00;97781.47;5045901;28;20410;-81
2022/12/20 03:18:05;;;;;;;25.15;13.80;;;4.40;99.90;;;3.13;100.00;97764.00;5031001;28;20411;-81
2022/12/20 03:20:31;;;;;;;27.27;14.85;;;4.40;99.90;;;3.19;100.00;97765.84;5031125;28;20411;-81
2022/12/20 03:22:57;;;;;;;23.30;13.90;;;4.50;99.90;;;3.26;100.00;97765.88;5030073;28;20406;-82
2022/12/20 03:25:23;;;;;;;20.90;12.35;;;4.50;99.90;;;3.31;100.00;97753.00;5030662;28;20411;-81
2022/12/20 03:27:49;;;;;;;20.65;12.63;;;4.50;99.90;;;3.30;100.00;97751.41;5030450;28;20435;-81
2022/12/20 03:30:15;;;;;;;18.35;11.38;;;4.60;99.90;;;3.31;100.00;97738.09;5030999;28;20895;-82
2022/12/20 03:32:42;;;;;;;16.85;10.93;;;4.50;99.90;;;3.28;100.00;97730.66;5029817;28;20434;-82
2022/12/20 03:35:09;;;;;;;20.73;12.27;;;4.50;99.90;;;3.23;100.00;97733.06;5030493;28;20446;-81
2022/12/20 03:37:35;;;;;;;20.48;12.85;;;4.40;99.90;;;3.13;100.00;97739.66;5030690;28;20406;-82
2022/12/20 03:40:01;;;;;;;19.05;11.27;;;4.30;99.90;;;3.16;100.00;97740.06;5030714;28;20450;-81
2022/12/20 03:42:27;;;;;;;20.40;11.50;;;4.40;99.90;;;2.99;100.00;97737.00;5029888;28;20399;-82
2022/12/20 03:44:52;;;;;;;19.38;11.27;;;4.30;99.90;;;3.01;100.00;97753.28;5030350;28;20409;-81
2022/12/20 03:47:18;;;;;;;17.20;10.87;;;4.20;99.90;;;2.91;100.00;97752.84;5030428;28;20402;-81
2022/12/20 03:49:46;;;;;;;17.35;10.55;;;4.10;99.90;;;3.03;100.00;97747.84;5030358;28;20450;-81
2022/12/20 03:52:13;;;;;;;17.87;9.33;;;4.20;99.90;;;3.03;100.00;97740.00;5029474;28;20418;-81
2022/12/20 03:54:39;;;;;;;13.82;8.77;;;4.30;99.90;;;3.00;100.00;97740.41;5012272;28;20549;-81
2022/12/20 03:57:05;;;;;;;12.10;7.63;;;4.20;99.90;;;3.02;100.00;97738.41;5030209;28;20403;-81
2022/12/20 03:59:31;;;;;;;14.93;8.13;;;4.20;99.90;;;3.08;100.00;97735.03;5030419;28;20407;-81
2022/12/20 04:01:57;;;;;;;11.95;7.50;;;4.30;99.90;;;3.17;100.00;97733.03;5029477;28;20465;-81
2022/12/20 04:04:23;;;;;;;10.65;7.22;;;4.30;99.90;;;3.15;100.00;97745.50;5029919;28;20415;-81
2022/12/20 04:06:50;;;;;;;18.30;9.50;;;4.30;99.90;;;3.08;100.00;97732.41;5029948;28;20831;-81
2022/12/20 04:09:16;;;;;;;19.10;10.70;;;4.30;99.90;;;3.32;100.00;97729.25;5030092;28;20418;-81
2022/12/20 04:11:42;;;;;;;18.70;10.48;;;4.60;99.90;;;3.37;100.00;97724.28;5029242;28;20439;-81
2022/12/20 04:14:08;;;;;;;16.02;9.68;;;4.70;99.90;;;3.43;100.00;97725.28;5029826;28;20403;-81
2022/12/20 04:16:34;;;;;;;18.73;11.63;;;4.70;99.90;;;3.40;100.00;97728.28;5029876;28;20482;-81
2022/12/20 04:19:01;;;;;;;15.25;9.90;;;4.70;99.90;;;3.46;100.00;97724.88;5029970;28;20414;-81
2022/12/20 04:21:31;;;;;;;17.15;9.40;;;4.70;99.90;;;3.43;100.00;97725.28;5029180;28;20869;-81
2022/12/20 04:24:01;;;;;;;14.98;9.63;;;4.70;99.90;;;3.45;100.00;97723.28;5029551;28;20438;-81
2022/12/20 04:26:27;;;;;;;14.43;9.25;;;4.70;99.90;;;3.44;100.00;97714.63;5029635;28;20407;-81
2022/12/20 04:28:53;;;;;;;14.82;8.98;;;4.70;99.90;;;3.47;100.00;97726.47;5029866;28;20399;-82
2022/12/20 04:31:19;;;;;;;14.63;9.43;;;4.70;99.90;;;3.45;100.00;97726.72;5029185;28;20777;-81
2022/12/20 04:33:46;;;;;;;14.52;8.75;;;4.70;99.90;;;3.43;100.00;97733.13;5029419;28;20874;-82
2022/12/20 04:36:12;;;;;;;14.65;8.82;;;4.70;99.90;;;3.48;100.00;97721.06;5012054;28;20499;-81
2022/12/20 04:38:38;;;;;;;14.95;8.40;;;4.70;99.90;;;3.37;100.00;97719.03;5029871;28;20774;-81
2022/12/20 04:41:05;;;;;;;15.10;8.88;;;4.60;99.90;;;3.31;100.00;97701.47;5032747;28;20399;-81
2022/12/20 04:43:31;;;;;;;12.90;9.07;;;4.60;99.90;;;3.31;100.00;97704.09;5033029;28;20916;-81
2022/12/20 04:45:57;;;;;;;13.93;8.60;;;4.50;99.90;;;3.31;100.00;97704.09;5033979;28;20476;-81
2022/12/20 04:48:26;;;;;;;13.10;8.52;;;4.50;99.90;;;3.24;100.00;97695.44;5025026;28;20406;-81
2022/12/20 04:50:53;;;;;;;13.57;8.25;;;4.50;99.90;;;3.27;100.00;97691.63;5021894;28;20813;-82
2022/12/20 04:56:06;;;;;;;13.48;7.78;;;4.50;99.90;;;3.31;100.00;97692.81;5023781;28;21063;-80
2022/12/20 04:58:32;;;;;;;11.43;7.43;;;4.40;99.90;;;3.32;100.00;97699.69;5015382;28;20540;-80
2022/12/20 05:00:58;;;;;;;15.20;7.88;;;4.50;99.90;;;3.33;100.00;97699.47;5023440;28;20489;-81
2022/12/20 05:03:25;;;;;;;13.88;7.47;;;4.50;99.90;;;3.35;100.00;97700.09;5022824;28;20498;-81
2022/12/20 05:05:52;;;;;;;11.73;7.28;;;4.50;99.90;;;3.38;100.00;97688.44;5020306;28;20412;-82
2022/12/20 05:08:17;;;;;;;12.52;6.72;;;4.60;99.90;;;3.35;100.00;97681.78;5014902;28;20401;-82
2022/12/20 05:10:44;;;;;;;11.18;6.63;;;4.50;99.90;;;3.39;100.00;97684.78;5021450;28;20772;-82
2022/12/20 05:13:11;;;;;;;9.38;6.28;;;4.60;99.90;;;3.39;100.00;97682.19;5023055;28;20570;-81
2022/12/20 05:15:37;;;;;;;8.60;5.90;;;4.60;99.90;;;3.42;100.00;97682.59;5022992;28;20407;-81
2022/12/20 05:18:03;;;;;;;11.32;6.00;;;4.60;99.90;;;3.34;100.00;97682.78;5029584;28;20454;-79
2022/12/20 05:20:30;;;;;;;7.70;5.53;;;4.50;99.90;;;3.47;100.00;97674.16;5033251;28;20456;-78
2022/12/20 05:28:32;;;;;;;7.57;5.22;;;4.70;99.90;;;3.50;100.00;97666.72;5033196;28;20485;-77
2022/12/20 05:30:59;;;;;;;8.02;5.40;;;4.60;99.90;;;3.44;100.00;97669.31;5033032;28;20440;-77
2022/12/20 05:33:26;;;;;;;8.43;5.75;;;4.60;99.90;;;3.47;100.00;97666.28;5029452;28;20468;-77
2022/12/20 05:35:52;;;;;;;12.07;6.00;;;4.60;99.90;;;3.49;100.00;97669.53;5027807;28;20426;-77
2022/12/20 05:38:18;;;;;;;9.88;5.70;;;4.60;99.90;;;3.43;100.00;97671.13;5028926;28;20431;-77
2022/12/20 05:40:47;;;;;;;8.63;5.40;;;4.60;99.90;;;3.42;100.00;97666.09;5027146;28;20419;-76
2022/12/20 05:43:14;;;;;;;8.48;5.22;;;4.60;99.90;;;3.54;100.00;97659.25;5031876;28;20399;-75
2022/12/20 05:45:46;;;;;;;7.80;5.00;;;4.70;99.90;;;3.60;100.00;97652.44;5031936;28;20402;-75
2022/12/20 05:48:11;;;;;;;6.28;4.47;;;4.70;99.90;;;3.64;100.00;97649.22;5029750;28;20506;-75
2022/12/20 05:50:37;;;;;;;7.83;5.00;;;4.80;99.90;;;3.66;100.00;97649.81;5031934;28;20425;-75
2022/12/20 05:53:03;;;;;;;7.35;4.90;;;4.80;99.90;;;3.65;100.00;97637.75;5013300;28;20419;-76
2022/12/20 05:55:29;;;;;;;6.35;4.60;;;4.80;99.90;;;3.67;100.00;97637.53;5032403;28;20429;-76
2022/12/20 05:57:55;;;;;;;7.17;4.70;;;4.80;99.90;;;3.63;100.00;97642.38;5032201;28;20780;-75
2022/12/20 06:00:21;;;;;;;8.05;5.03;;;4.80;99.90;;;3.63;100.00;97636.31;5031891;28;20975;-74
2022/12/20 06:02:48;;;;;;;9.33;5.00;;;4.80;99.90;;;3.62;100.00;97630.28;5013791;28;20498;-74
2022/12/20 06:05:15;;;;;;;8.52;4.68;;;4.80;99.90;;;3.65;100.00;97626.47;5036304;28;20417;-74
2022/12/20 06:07:41;;;;;;;8.88;4.63;;;4.80;99.90;;;3.65;100.00;97627.28;5040069;28;20403;-76
2022/12/20 06:10:10;;;;;;;11.90;5.07;;;4.80;99.90;;;3.66;100.00;97634.13;5032333;28;20787;-76
2022/12/20 06:12:36;;;;;;;6.90;4.78;;;4.80;99.90;;;3.66;100.00;97649.03;5031582;28;20456;-75
2022/12/20 06:15:02;;;;;;;9.52;4.85;;;4.80;99.90;;;3.69;100.00;97640.75;5032195;28;20927;-77
2022/12/20 06:17:27;;;;;;;7.70;4.88;;;4.90;99.90;;;3.72;100.00;97641.16;5032515;28;20414;-78
2022/12/20 06:19:55;;;;;;;8.63;5.10;;;4.90;99.90;;;3.77;100.00;97646.59;5032331;28;20844;-79
2022/12/20 06:22:21;;;;;;;6.80;4.72;;;4.90;99.90;;;3.83;100.00;97640.53;5031398;28;20885;-77
2022/12/20 06:24:47;;;;;;;7.72;4.55;;;5.00;99.90;;;3.85;100.00;97645.59;5031900;28;20490;-79
2022/12/20 06:27:13;;;;;;;6.65;4.35;;;5.00;99.90;;;3.83;100.00;97640.53;5031991;28;20413;-77
2022/12/20 06:29:39;;;;;;;6.35;4.47;;;5.00;99.90;;;3.90;100.00;97645.81;5031573;28;20419;-77
2022/12/20 06:32:05;;;;;;;10.27;4.93;;;5.00;99.90;;;3.83;100.00;97645.78;5020235;28;20459;-77
2022/12/20 06:34:32;;;;;;;6.20;4.27;;;5.00;99.90;;;3.90;100.00;97651.03;5020944;28;20404;-77
2022/12/20 06:36:59;;;;;;;5.82;3.97;;;5.00;99.90;;;3.89;100.00;97652.84;5015477;28;20414;-77
2022/12/20 06:39:25;;;;;;;6.53;4.28;;;5.00;99.90;;;3.84;100.00;97652.63;5031697;28;20410;-77
2022/12/20 06:41:51;;;;;;;7.60;4.20;;;5.00;99.90;;;3.88;100.00;97653.84;5014423;28;20409;-77
2022/12/20 06:44:17;;;;;;;6.65;3.92;;;5.00;99.90;;;3.81;100.00;97655.69;5027021;28;20404;-76
2022/12/20 06:46:43;;;;;;;7.93;4.70;;;5.00;99.90;;;3.77;100.00;97658.88;5001715;28;20441;-76
2022/12/20 06:49:09;;;;;;;6.15;4.30;;;5.00;99.90;;;3.78;100.00;97656.06;5023276;28;20964;-76
2022/12/20 06:51:35;;;;;;;9.60;4.95;;;4.90;99.90;;;3.77;100.00;97651.84;5017553;28;20420;-80
2022/12/20 06:54:03;;;;;;;8.52;4.97;;;5.00;99.90;;;3.81;100.00;97660.09;5030413;28;20407;-78
2022/12/20 06:56:28;;;;;;;7.50;4.60;;;5.00;99.90;;;3.85;100.00;97651.63;5017787;28;20438;-78
2022/12/20 06:58:54;;;;;;;7.75;4.63;;;5.00;99.90;;;3.94;100.00;97652.25;5027826;28;20436;-80
2022/12/20 07:01:20;;;;;;;6.63;4.40;;;5.10;99.90;;;3.90;100.00;97645.81;5023815;28;20403;-79
2022/12/20 07:03:46;;;;;;;7.90;4.45;;;5.10;99.90;;;3.97;100.00;97644.00;5013686;28;20409;-80
2022/12/20 07:06:12;;;;;;;7.07;4.35;;;5.10;99.90;;;3.98;100.00;97650.03;5027366;28;20413;-75
2022/12/20 07:08:38;;;;;;;6.53;4.20;;;5.10;99.90;;;3.99;100.00;97649.81;5018395;28;20418;-77
2022/12/20 07:11:07;;;;;;;5.75;4.03;;;5.10;99.90;;;4.07;100.00;97651.41;5020581;28;20492;-80
2022/12/20 07:13:33;;;;;;;7.03;4.43;;;5.20;99.90;;;4.07;100.00;97646.97;5001596;28;20483;-79
2022/12/20 07:16:00;;;;;;;9.25;4.35;;;5.20;99.90;;;4.08;100.00;97645.97;5027500;28;20412;-79
2022/12/20 07:18:27;;;;;;;8.57;4.47;;;5.20;99.90;;;4.20;100.00;97646.19;5017703;28;20403;-80
2022/12/20 07:20:53;;;;;;;6.88;4.03;;;5.30;99.90;;;4.13;100.00;97646.19;5020810;28;20920;-81
2022/12/20 07:23:19;;;;;;;4.60;3.70;;;5.30;99.90;;;4.15;100.00;97646.78;5023970;28;20518;-81
2022/12/20 07:25:54;;;;;;;7.53;4.50;;;5.30;99.90;;;4.16;100.00;97644.97;5017364;28;20399;-81
2022/12/20 07:28:21;;;;;;;8.20;4.50;;;5.30;99.90;;;4.17;100.00;97642.16;5025630;28;20485;-80
2022/12/20 07:30:47;;;;;;;7.13;4.10;;;5.40;99.90;;;4.25;100.00;97643.75;5020431;28;20411;-81
2022/12/20 07:33:13;;;;;;;9.20;4.30;;;5.40;99.90;;;4.29;100.00;97642.31;5021861;28;20853;-81
2022/12/20 07:35:39;;;;;;;8.32;4.20;;;5.50;99.90;;;4.32;100.00;97639.28;5033932;28;20414;-80
2022/12/20 07:38:05;;;;;;;9.07;4.17;;;5.50;99.90;;;4.40;100.00;97644.31;5011636;28;20756;-78
2022/12/20 07:40:31;;;;;;;8.63;4.18;;;5.60;99.90;;;4.42;100.00;97644.13;5015660;28;20403;-79
2022/12/20 07:42:57;;;;;;;7.60;4.20;;;5.60;99.90;;;4.49;100.00;97640.47;5027270;28;21060;-77
2022/12/20 07:45:24;;;;;;;5.63;4.07;;;5.70;99.90;;;4.51;100.00;97648.13;5030405;28;20490;-78
2022/12/20 07:47:50;;;;;;;6.40;4.30;;;5.70;99.90;;;4.51;100.00;97643.66;5036262;28;20418;-77
2022/12/20 07:50:16;;;;;;;5.90;4.03;;;5.70;99.90;;;4.53;100.00;97638.22;5014356;28;20434;-79
2022/12/20 07:52:44;;;;;;;5.90;3.92;;;5.70;99.90;;;4.52;100.00;97641.84;5029701;28;20415;-78
2022/12/20 07:55:12;;;;;;;9.93;4.50;;;5.70;99.90;;;4.61;100.00;97633.56;5030442;28;20403;-78
2022/12/20 07:57:41;;;;;;;7.28;4.25;;;5.70;99.90;;;4.56;100.00;97645.69;5030397;28;20403;-78
2022/12/20 08:00:09;;;;;;;9.17;4.70;;;5.70;99.90;;;4.62;100.00;97637.81;5012783;28;20851;-80
2022/12/20 08:02:43;;;;;;;7.70;4.40;;;5.70;99.90;;;4.65;100.00;97639.22;5012701;28;20414;-77
2022/12/20 08:05:09;;;;;;;8.75;4.60;;;5.80;99.90;;;4.78;100.00;97646.22;5012576;28;20425;-77
2022/12/20 08:07:38;;;;;;;8.90;4.57;;;5.90;99.90;;;4.76;100.00;97643.81;5030366;28;20466;-79
2022/12/20 08:10:06;;;;;;;6.75;4.15;;;5.90;99.90;;;4.93;100.00;97644.16;5020018;28;20460;-77
2022/12/20 08:12:32;;;;;;;5.55;4.07;;;6.10;99.90;;;5.11;100.00;97643.47;5009656;28;20886;-77
2022/12/20 08:14:58;;;;;;;9.77;4.47;;;6.30;99.90;;;5.36;100.00;97639.88;5010118;28;20436;-77
2022/12/20 08:17:24;;;;;;;8.63;4.13;;;6.50;99.90;;;5.33;100.00;97636.88;5010289;28;20408;-77
2022/12/20 08:19:51;;;;;;;6.72;4.25;;;6.50;99.90;;;5.26;100.00;97641.38;5010238;28;20500;-77
2022/12/20 08:22:18;;;;;;;7.43;3.93;;;6.40;99.90;;;5.26;100.00;97638.75;5009725;28;20405;-76
2022/12/20 08:24:44;;;;;;;8.85;4.28;;;6.40;99.90;;;5.22;100.00;97627.03;5010148;28;20420;-76
2022/12/20 08:27:10;;;;;;;7.47;4.13;;;6.40;99.90;;;5.24;100.00;97625.81;5010065;28;20412;-76
2022/12/20 08:29:36;;;;;;;6.50;3.80;;;6.40;99.90;;;5.37;100.00;97615.25;5010356;28;20906;-77
2022/12/20 08:32:02;;;;;;;8.57;4.13;;;6.50;99.90;;;5.40;100.00;97614.03;5009489;28;20567;-77
2022/12/20 08:34:29;;;;;;;6.77;3.57;;;6.60;99.90;;;5.51;100.00;97609.88;5010128;28;20409;-78
2022/12/20 08:36:56;;;;;;;9.02;3.78;;;6.60;99.90;;;5.58;100.00;97608.00;5033917;28;20418;-81
2022/12/20 08:39:22;;;;;;;6.72;4.00;;;6.70;99.90;;;5.51;100.00;97607.25;5033091;28;20404;-81
2022/12/20 08:41:48;;;;;;;5.22;3.60;;;6.70;99.90;;;5.52;100.00;97604.44;5030847;28;20406;-76
2022/12/20 08:44:14;;;;;;;7.82;3.80;;;6.70;99.90;;;5.57;100.00;97609.03;5011393;28;20419;-77
2022/12/20 08:46:40;;;;;;;7.30;3.92;;;6.80;99.90;;;5.72;100.00;97605.06;5028893;28;20499;-77
2022/12/20 08:49:06;;;;;;;6.47;4.40;;;6.80;99.90;;;5.71;100.00;97598.22;5028912;28;20403;-77
2022/12/20 08:51:32;;;;;;;6.18;4.00;;;6.90;99.90;;;5.70;100.00;97588.75;5027262;28;20799;-76
2022/12/20 08:54:01;;;;;;;6.13;3.45;;;6.90;99.90;;;5.81;100.00;97593.28;5029465;28;20407;-76
2022/12/20 08:56:29;;;;;;;8.25;4.28;;;6.90;99.90;;;5.90;100.00;97583.34;5029302;28;20427;-77
2022/12/20 08:58:55;;;;;;;5.55;3.42;;;7.10;99.90;;;6.01;100.00;97581.84;5028028;28;20513;-78
2022/12/20 09:01:21;;;;;;;7.45;4.00;;;7.20;99.90;;;6.14;100.00;97589.59;5025311;28;20843;-77
2022/12/20 09:03:48;;;;;;;5.85;3.50;;;7.30;99.90;;;6.26;100.00;97587.84;5035244;28;20461;-76
2022/12/20 09:06:17;;;;;;;7.55;3.50;;;7.40;99.90;;;6.26;100.00;97584.41;5029699;28;20824;-78
2022/12/20 09:08:43;;;;;;;7.70;4.13;;;7.40;99.90;;;6.40;100.00;97591.13;5011406;28;20784;-76
2022/12/20 09:11:13;;;;;;;7.32;3.78;;;7.50;99.90;;;6.48;100.00;97589.00;5026373;28;21647;-77
2022/12/20 09:13:40;;;;;;;7.28;3.75;;;7.60;99.90;;;6.53;100.00;97588.38;5027826;28;20780;-77
2022/12/20 09:16:08;;;;;;;8.98;4.10;;;7.60;99.90;;;6.46;100.00;97577.94;5028524;28;20396;-76
2022/12/20 09:18:34;;;;;;;6.85;3.78;;;7.60;99.90;;;6.52;100.00;97566.53;5026340;28;20460;-77
2022/12/20 09:21:01;;;;;;;6.47;3.60;;;7.60;99.90;;;6.65;100.00;97567.38;5028100;28;20437;-77
2022/12/20 09:23:28;;;;;;;7.72;3.47;;;7.80;99.90;;;6.59;100.00;97577.75;5011330;28;20405;-76
2022/12/20 09:25:54;;;;;;;7.18;3.72;;;7.70;99.90;;;6.68;100.00;97573.00;5047366;22;20494;-72
2022/12/20 09:28:23;;;;;;;7.07;3.88;;;7.80;99.90;;;6.62;100.00;97587.03;5049627;28;20416;-71
2022/12/20 09:30:51;;;;;;;5.03;3.80;;;7.80;99.90;;;6.66;100.00;97588.19;5043729;28;20922;-71
2022/12/20 09:33:17;;;;;;;6.47;3.70;;;7.70;99.90;;;6.61;100.00;97599.38;5042745;28;20459;-72
2022/12/20 09:35:44;;;;;;;5.70;3.60;;;7.80;99.90;;;6.62;100.00;97581.75;5039040;28;20537;-72
2022/12/20 09:38:10;;;;;;;6.55;3.30;;;7.70;99.90;;;6.51;100.00;97585.13;5023777;28;20795;-72
2022/12/20 09:40:37;;;;;;;5.80;3.50;;;7.70;99.90;;;6.64;100.00;97573.66;5019584;28;20417;-71
2022/12/20 09:43:04;;;;;;;5.80;3.80;;;7.70;99.90;;;6.58;100.00;97572.72;5022277;28;20841;-73
2022/12/20 09:45:36;;;;;;;8.70;3.95;;;7.70;99.90;;;6.62;100.00;97581.75;5024785;28;20848;-72
2022/12/20 09:48:04;;;;;;;13.27;6.22;;;7.80;99.90;;;6.63;100.00;97569.41;5026168;28;20410;-73
2022/12/20 09:50:45;;;;;;;8.67;4.10;;;7.80;99.90;;;6.65;100.00;97570.00;5021747;28;20416;-72
2022/12/20 09:53:22;;;;;;;6.97;4.03;;;7.80;99.90;;;6.70;100.00;97562.25;5029156;28;20785;-73
2022/12/20 09:55:58;;;;;;;7.17;3.33;;;7.80;99.90;;;6.77;100.00;97558.50;5030836;28;20928;-72
2022/12/20 09:58:51;;;;;;;5.82;3.53;;;7.80;99.90;;;6.82;100.00;97555.22;5024551;28;20934;-73
2022/12/20 10:01:23;;;;;;;6.73;3.70;;;7.90;99.90;;;6.79;100.00;97543.31;5027243;28;20425;-72
2022/12/20 10:03:50;;;;;;;6.70;3.67;;;7.90;99.90;;;6.85;100.00;97552.13;5030958;28;20407;-72
2022/12/20 10:06:28;;;;;;;7.07;3.80;;;8.00;99.90;;;6.86;100.00;97533.50;5012720;28;20407;-73
2022/12/20 10:08:58;;;;;;;6.28;3.25;;;8.00;99.90;;;6.99;100.00;97537.78;5027419;28;20414;-73
2022/12/20 10:12:00;;;;;;;6.20;3.60;;;8.10;99.90;;;6.88;100.00;97536.72;5028777;28;20409;-71
2022/12/20 10:14:49;;;;;;;7.07;2.95;;;8.00;99.90;;;6.93;100.00;97539.47;5029911;28;20974;-74
2022/12/20 10:17:30;;;;;;;5.75;2.80;;;8.10;99.90;;;7.08;100.00;97548.78;5024341;28;20395;-73
2022/12/20 10:20:28;;;;;;;4.55;3.10;;;8.20;99.90;;;7.12;100.00;97552.59;5030274;28;20418;-72
2022/12/20 10:23:02;;;;;;;4.03;2.85;;;8.20;99.90;;;7.12;100.00;97542.84;4994474;28;20875;-73
2022/12/20 10:25:31;;;;;;;5.63;2.72;;;8.20;99.90;;;7.10;100.00;97534.38;5027110;28;20406;-73
2022/12/20 10:28:02;;;;;;;5.35;3.05;;;8.20;99.90;;;7.15;100.00;97531.06;5028601;28;20402;-72
2022/12/20 10:30:30;;;;;;;6.68;3.58;;;8.20;99.90;;;7.15;100.00;97526.59;5030656;28;20502;-73
2022/12/20 10:32:58;;;;;;;7.35;3.70;;;8.20;99.90;;;7.12;100.00;97526.25;5026249;28;20419;-72
2022/12/20 10:35:27;;;;;;;4.43;2.78;;;8.20;99.90;;;7.30;100.00;97521.69;5030581;28;20764;-72